createdAt,value
2022-08-04T00:00:28.037Z,99892.00
2022-08-04T00:03:26.630Z,99890.91
2022-08-04T00:06:37.330Z,99887.13
2022-08-04T00:09:57.629Z,99889.91
2022-08-04T00:12:42.010Z,99886.88
2022-08-04T00:15:26.631Z,99889.09
2022-08-04T00:18:15.399Z,99890.41
2022-08-04T00:20:52.367Z,99889.91
2022-08-04T00:24:12.131Z,99895.94
2022-08-04T00:26:51.773Z,99890.19
2022-08-04T00:29:35.084Z,99894.84
2022-08-04T00:32:34.574Z,99900.81
2022-08-04T00:35:15.087Z,99887.66
2022-08-04T00:37:50.458Z,99895.25
2022-08-04T00:40:48.988Z,99896.91
2022-08-04T00:44:03.625Z,99894.44
2022-08-04T00:47:01.349Z,99906.25
2022-08-04T00:50:05.820Z,99902.16
2022-08-04T00:53:14.404Z,99904.88
2022-08-04T00:56:18.281Z,99907.84
2022-08-04T00:59:06.987Z,99917.41
2022-08-04T01:02:04.487Z,99906.44
2022-08-04T01:04:54.753Z,99915.25
2022-08-04T01:08:01.391Z,99920.34
2022-08-04T01:11:15.030Z,99914.56
2022-08-04T01:14:02.617Z,99918.66
2022-08-04T01:17:02.072Z,99920.25
2022-08-04T01:20:13.614Z,99915.84
2022-08-04T01:22:49.422Z,99921.06
2022-08-04T01:25:58.313Z,99925.13
2022-08-04T01:28:36.045Z,99926.97
2022-08-04T01:31:35.221Z,99926.66
2022-08-04T01:34:14.707Z,99928.22
2022-08-04T01:37:30.423Z,99925.16
2022-08-04T01:40:10.568Z,99927.09
2022-08-04T01:42:50.412Z,99925.31
2022-08-04T01:45:28.399Z,99919.31
2022-08-04T01:48:10.956Z,99920.72
2022-08-04T01:50:45.531Z,99921.50
2022-08-04T01:53:39.121Z,99913.28
2022-08-04T01:56:25.778Z,99918.72
2022-08-04T01:59:04.091Z,99917.94
2022-08-04T02:01:39.213Z,99917.84
2022-08-04T02:04:25.241Z,99912.88
2022-08-04T02:07:26.099Z,99920.22
2022-08-04T02:10:15.198Z,99911.72
2022-08-04T02:13:10.892Z,99914.13
2022-08-04T02:16:05.133Z,99908.13
2022-08-04T02:19:18.442Z,99909.47
2022-08-04T02:21:59.929Z,99908.66
2022-08-04T02:24:48.732Z,99905.66
2022-08-04T02:28:00.003Z,99907.00
2022-08-04T02:30:39.244Z,99903.69
2022-08-04T02:33:28.760Z,99908.53
2022-08-04T02:36:09.365Z,99906.91
2022-08-04T02:39:01.645Z,99904.69
2022-08-04T02:41:43.718Z,99900.56
2022-08-04T02:44:23.277Z,99907.38
2022-08-04T02:47:09.369Z,99902.94
2022-08-04T02:49:49.321Z,99895.47
2022-08-04T02:52:38.441Z,99898.81
2022-08-04T02:55:32.123Z,99895.41
2022-08-04T02:58:21.407Z,99899.00
2022-08-04T03:00:59.839Z,99898.16
2022-08-04T03:04:04.080Z,99897.22
2022-08-04T03:07:14.262Z,99903.78
2022-08-04T03:10:48.362Z,99909.19
2022-08-04T03:13:53.575Z,99905.31
2022-08-04T03:17:03.080Z,99911.34
2022-08-04T03:20:01.069Z,99904.72
2022-08-04T03:23:14.666Z,99906.59
2022-08-04T03:26:15.345Z,99914.19
2022-08-04T03:29:36.681Z,99907.91
2022-08-04T03:32:44.786Z,99908.09
2022-08-04T03:35:36.389Z,99908.31
2022-08-04T03:38:27.076Z,99906.84
2022-08-04T03:41:55.069Z,99908.03
2022-08-04T03:44:57.581Z,99911.34
2022-08-04T03:48:23.795Z,99911.28
2022-08-04T03:51:35.503Z,99919.97
2022-08-04T03:54:55.103Z,99924.09
2022-08-04T03:57:43.814Z,99916.47
2022-08-04T04:00:53.438Z,99925.75
2022-08-04T04:03:44.863Z,99923.06
2022-08-04T04:07:00.914Z,99929.34
2022-08-04T04:10:28.759Z,99923.38
2022-08-04T04:13:19.126Z,99924.00
2022-08-04T04:16:33.237Z,99920.50
2022-08-04T04:19:35.781Z,99935.03
2022-08-04T04:22:38.289Z,99929.66
2022-08-04T04:25:25.034Z,99932.47
2022-08-04T04:28:48.295Z,99933.44
2022-08-04T04:32:15.189Z,99935.63
2022-08-04T04:35:12.369Z,99926.75
2022-08-04T04:38:17.409Z,99932.84
2022-08-04T04:41:28.308Z,99935.41
2022-08-04T04:44:30.436Z,99941.81
2022-08-04T04:48:07.281Z,99933.44
2022-08-04T04:50:56.609Z,99934.94
2022-08-04T04:54:05.026Z,99943.84
2022-08-04T04:56:43.629Z,99934.59
2022-08-04T04:59:36.391Z,99938.28
2022-08-04T05:02:42.977Z,99935.63
2022-08-04T05:05:26.754Z,99936.22
2022-08-04T05:08:44.231Z,99933.78
2022-08-04T05:11:39.608Z,99936.25
2022-08-04T05:14:38.861Z,99947.97
2022-08-04T05:17:36.468Z,99944.53
2022-08-04T05:20:40.526Z,99954.56
2022-08-04T05:23:24.392Z,99958.78
2022-08-04T05:26:11.781Z,99950.03
2022-08-04T05:28:52.503Z,99962.84
2022-08-04T05:31:40.689Z,99965.28
2022-08-04T05:34:26.075Z,99963.22
2022-08-04T05:37:20.761Z,99964.91
2022-08-04T05:40:03.377Z,99964.50
2022-08-04T05:42:42.827Z,99970.09
2022-08-04T05:45:24.257Z,99967.69
2022-08-04T05:48:01.392Z,99978.88
2022-08-04T05:50:43.017Z,99977.25
2022-08-04T05:53:24.639Z,99981.53
2022-08-04T05:56:05.677Z,99976.44
2022-08-04T05:58:50.510Z,99975.09
2022-08-04T06:01:30.423Z,99977.28
2022-08-04T06:04:13.429Z,99981.03
2022-08-04T06:07:04.495Z,99980.09
2022-08-04T06:09:35.604Z,99977.13
2022-08-04T06:12:19.488Z,99982.34
2022-08-04T06:14:59.474Z,99986.88
2022-08-04T06:18:35.647Z,99983.31
2022-08-04T06:21:16.417Z,99981.06
2022-08-04T06:24:12.151Z,99990.22
2022-08-04T06:26:50.653Z,99987.34
2022-08-04T06:29:41.308Z,99985.44
2022-08-04T06:32:47.815Z,99978.41
2022-08-04T06:35:32.985Z,99983.53
2022-08-04T06:38:18.238Z,99988.13
2022-08-04T06:40:58.351Z,99987.81
2022-08-04T06:43:43.054Z,99982.41
2022-08-04T06:46:22.187Z,99989.03
2022-08-04T06:49:06.653Z,99982.88
2022-08-04T06:51:49.637Z,99982.41
2022-08-04T06:54:27.577Z,99978.94
2022-08-04T06:57:08.500Z,99975.50
2022-08-04T06:59:49.381Z,99982.19
2022-08-04T07:02:30.137Z,99966.94
2022-08-04T07:05:21.401Z,99969.44
2022-08-04T07:07:58.452Z,99976.44
2022-08-04T07:10:40.113Z,99981.66
2022-08-04T07:13:27.070Z,99976.59
2022-08-04T07:16:04.407Z,99977.56
2022-08-04T07:18:39.679Z,99978.81
2022-08-04T07:21:27.391Z,99973.94
2022-08-04T07:24:13.029Z,99979.09
2022-08-04T07:26:52.418Z,99975.03
2022-08-04T07:29:29.555Z,99980.56
2022-08-04T07:32:14.411Z,99971.88
2022-08-04T07:34:52.256Z,99969.16
2022-08-04T07:37:38.943Z,99973.91
2022-08-04T07:40:31.826Z,99975.38
2022-08-04T07:43:10.855Z,99973.41
2022-08-04T07:45:47.364Z,99971.44
2022-08-04T07:48:31.419Z,99974.72
2022-08-04T07:51:07.447Z,99966.13
2022-08-04T07:53:55.011Z,99965.19
2022-08-04T07:56:31.301Z,99967.09
2022-08-04T07:59:13.243Z,99958.84
2022-08-04T08:01:45.143Z,99954.53
2022-08-04T08:04:18.755Z,99957.34
2022-08-04T08:06:49.408Z,99960.28
2022-08-04T08:09:25.321Z,99960.16
2022-08-04T08:12:38.286Z,99960.97
2022-08-04T08:14:56.321Z,99959.31
2022-08-04T08:17:32.557Z,99959.63
2022-08-04T08:20:29.921Z,99958.50
2022-08-04T08:23:02.563Z,99956.84
2022-08-04T08:25:41.213Z,99948.38
2022-08-04T08:28:17.592Z,99951.81
2022-08-04T08:30:59.452Z,99953.75
2022-08-04T08:33:39.010Z,99954.25
2022-08-04T08:37:03.834Z,99953.66
2022-08-04T08:40:05.050Z,99950.03
2022-08-04T08:44:03.804Z,99944.94
2022-08-04T08:46:48.920Z,99957.94
2022-08-04T08:50:03.061Z,99947.38
2022-08-04T08:53:02.760Z,99950.47
2022-08-04T08:56:18.144Z,99954.28
2022-08-04T08:59:38.269Z,99944.81
2022-08-04T09:02:49.759Z,99944.47
2022-08-04T09:05:56.947Z,99945.84
2022-08-04T09:08:55.679Z,99945.69
2022-08-04T09:11:33.104Z,99945.50
2022-08-04T09:14:48.614Z,99941.22
2022-08-04T09:17:52.422Z,99941.34
2022-08-04T09:21:17.235Z,99943.09
2022-08-04T09:24:03.439Z,99947.78
2022-08-04T09:27:27.760Z,99943.84
2022-08-04T09:30:18.855Z,99944.44
2022-08-04T09:33:45.405Z,99936.19
2022-08-04T09:36:31.867Z,99936.09
2022-08-04T09:39:36.205Z,99933.78
2022-08-04T09:42:30.273Z,99937.63
2022-08-04T09:45:39.177Z,99937.56
2022-08-04T09:48:45.235Z,99937.75
2022-08-04T09:51:58.768Z,99935.75
2022-08-04T09:54:44.487Z,99937.25
2022-08-04T09:57:41.382Z,99924.06
2022-08-04T10:00:23.719Z,99924.94
2022-08-04T10:03:23.509Z,99917.22
2022-08-04T10:06:36.077Z,99918.19
2022-08-04T10:09:51.035Z,99910.84
2022-08-04T10:12:51.396Z,99913.00
2022-08-04T10:15:41.692Z,99908.59
2022-08-04T10:18:14.525Z,99908.81
2022-08-04T10:21:19.616Z,99899.09
2022-08-04T10:24:30.293Z,99898.47
2022-08-04T10:27:31.423Z,99901.75
2022-08-04T10:30:16.949Z,99900.41
2022-08-04T10:33:10.926Z,99898.47
2022-08-04T10:36:31.272Z,99892.56
2022-08-04T10:39:42.831Z,99885.94
2022-08-04T10:42:30.394Z,99890.19
2022-08-04T10:45:18.399Z,99881.59
2022-08-04T10:48:14.087Z,99877.59
2022-08-04T10:50:58.469Z,99883.38
2022-08-04T10:53:38.452Z,99877.84
2022-08-04T10:56:22.589Z,99871.72
2022-08-04T10:59:00.810Z,99869.25
2022-08-04T11:01:50.543Z,99867.72
2022-08-04T11:05:16.424Z,99868.56
2022-08-04T11:07:52.502Z,99857.91
2022-08-04T11:10:33.442Z,99860.81
2022-08-04T11:13:21.869Z,99859.03
2022-08-04T11:16:15.393Z,99862.09
2022-08-04T11:19:23.491Z,99858.47
2022-08-04T11:22:48.658Z,99858.59
2022-08-04T11:25:35.991Z,99859.56
2022-08-04T11:28:23.454Z,99852.16
2022-08-04T11:31:18.499Z,99854.50
2022-08-04T11:33:54.372Z,99849.19
2022-08-04T11:36:33.814Z,99854.25
2022-08-04T11:39:19.515Z,99849.81
2022-08-04T11:42:07.796Z,99850.44
2022-08-04T11:45:01.957Z,99852.56
2022-08-04T11:47:41.691Z,99852.84
2022-08-04T11:50:40.987Z,99840.25
2022-08-04T11:53:19.507Z,99842.06
2022-08-04T11:56:07.135Z,99834.88
2022-08-04T11:58:50.121Z,99828.91
2022-08-04T12:01:32.471Z,99828.09
2022-08-04T12:04:50.398Z,99830.13
2022-08-04T12:07:54.611Z,99825.25
2022-08-04T12:10:48.653Z,99815.19
2022-08-04T12:13:49.410Z,99814.88
2022-08-04T12:16:30.370Z,99811.97
2022-08-04T12:19:17.253Z,99804.78
2022-08-04T12:21:57.412Z,99798.16
2022-08-04T12:24:38.659Z,99803.47
2022-08-04T12:27:19.527Z,99796.88
2022-08-04T12:30:59.445Z,99796.78
2022-08-04T12:33:10.197Z,99793.25
2022-08-04T12:36:11.853Z,99795.94
2022-08-04T12:39:04.274Z,99796.81
2022-08-04T12:41:45.419Z,99787.88
2022-08-04T12:44:33.347Z,99791.56
2022-08-04T12:47:28.274Z,99787.06
2022-08-04T12:50:19.777Z,99787.63
2022-08-04T12:53:02.746Z,99789.19
2022-08-04T12:56:01.729Z,99777.94
2022-08-04T12:58:47.303Z,99779.41
2022-08-04T13:02:07.221Z,99774.56
2022-08-04T13:04:29.297Z,99769.44
2022-08-04T13:07:22.244Z,99767.63
2022-08-04T13:10:18.309Z,99758.06
2022-08-04T13:13:06.990Z,99762.78
2022-08-04T13:15:56.164Z,99762.59
2022-08-04T13:18:30.459Z,99758.59
2022-08-04T13:21:49.956Z,99751.34
2022-08-04T13:24:31.126Z,99748.69
2022-08-04T13:27:10.871Z,99752.94
2022-08-04T13:30:00.714Z,99744.56
2022-08-04T13:32:41.091Z,99743.31
2022-08-04T13:35:13.335Z,99747.38
2022-08-04T13:38:04.159Z,99748.22
2022-08-04T13:40:40.100Z,99738.13
2022-08-04T13:43:51.595Z,99739.69
2022-08-04T13:46:33.858Z,99732.78
2022-08-04T13:49:48.446Z,99725.25
2022-08-04T13:52:15.454Z,99733.31
2022-08-04T13:54:53.539Z,99728.06
2022-08-04T13:57:47.666Z,99726.41
2022-08-04T14:00:30.253Z,99720.63
2022-08-04T14:03:23.722Z,99715.91
2022-08-04T14:06:18.835Z,99716.38
2022-08-04T14:09:02.059Z,99714.22
2022-08-04T14:12:09.138Z,99715.91
2022-08-04T14:14:39.429Z,99709.09
2022-08-04T14:17:20.647Z,99711.09
2022-08-04T14:20:01.913Z,99703.88
2022-08-04T14:22:34.809Z,99702.59
2022-08-04T14:25:16.718Z,99702.22
2022-08-04T14:28:05.893Z,99705.00
2022-08-04T14:30:44.034Z,99702.72
2022-08-04T14:34:03.094Z,99704.31
2022-08-04T14:36:04.627Z,99701.06
2022-08-04T14:38:53.945Z,99713.19
2022-08-04T14:41:33.451Z,99709.16
2022-08-04T14:44:11.993Z,99700.69
2022-08-04T14:47:03.465Z,99703.91
2022-08-04T14:49:35.811Z,99697.03
2022-08-04T14:52:13.490Z,99693.03
2022-08-04T14:54:52.583Z,99685.38
2022-08-04T14:57:33.237Z,99690.22
2022-08-04T15:00:32.450Z,99688.97
2022-08-04T15:03:08.806Z,99692.13
2022-08-04T15:06:05.188Z,99692.97
2022-08-04T15:08:38.377Z,99698.19
2022-08-04T15:11:13.692Z,99694.53
2022-08-04T15:14:08.697Z,99699.75
2022-08-04T15:17:12.135Z,99694.56
2022-08-04T15:20:11.554Z,99687.38
2022-08-04T15:22:54.038Z,99701.81
2022-08-04T15:25:39.952Z,99693.75
2022-08-04T15:28:26.600Z,99687.31
2022-08-04T15:31:10.313Z,99693.38
2022-08-04T15:34:15.428Z,99677.28
2022-08-04T15:36:58.221Z,99670.47
2022-08-04T15:39:52.611Z,99678.53
2022-08-04T15:42:59.535Z,99678.53
2022-08-04T15:46:37.102Z,99675.31
2022-08-04T15:48:56.099Z,99677.75
2022-08-04T15:51:42.072Z,99671.28
2022-08-04T15:54:27.701Z,99670.47
2022-08-04T15:57:09.475Z,99670.06
2022-08-04T16:00:22.281Z,99666.84
2022-08-04T16:02:56.762Z,99665.13
2022-08-04T16:05:43.432Z,99666.63
2022-08-04T16:08:26.456Z,99666.13
2022-08-04T16:11:08.475Z,99660.94
2022-08-04T16:14:07.739Z,99661.84
2022-08-04T16:16:45.214Z,99663.03
2022-08-04T16:19:35.089Z,99657.75
2022-08-04T16:22:38.532Z,99659.44
2022-08-04T16:25:12.456Z,99658.34
2022-08-04T16:27:44.414Z,99654.38
2022-08-04T16:30:18.340Z,99649.44
2022-08-04T16:32:51.430Z,99646.59
2022-08-04T16:35:27.504Z,99639.03
2022-08-04T16:38:15.680Z,99648.38
2022-08-04T16:41:02.299Z,99650.38
2022-08-04T16:43:51.402Z,99652.84
2022-08-04T16:47:08.623Z,99653.31
2022-08-04T16:49:36.558Z,99648.78
2022-08-04T16:52:33.852Z,99653.09
2022-08-04T16:55:09.572Z,99646.72
2022-08-04T16:57:45.395Z,99650.31
2022-08-04T17:00:15.031Z,99651.94
2022-08-04T17:02:53.635Z,99652.97
2022-08-04T17:05:39.029Z,99651.56
2022-08-04T17:08:29.737Z,99655.84
2022-08-04T17:11:03.246Z,99647.66
2022-08-04T17:14:02.201Z,99649.13
2022-08-04T17:16:58.437Z,99647.94
2022-08-04T17:19:36.596Z,99648.59
2022-08-04T17:22:10.675Z,99650.09
2022-08-04T17:24:48.235Z,99664.19
2022-08-04T17:28:19.054Z,99650.78
2022-08-04T17:30:35.656Z,99655.69
2022-08-04T17:33:06.459Z,99649.06
2022-08-04T17:35:54.761Z,99651.53
2022-08-04T17:38:39.507Z,99653.69
2022-08-04T17:41:19.083Z,99651.03
2022-08-04T17:44:12.079Z,99655.97
2022-08-04T17:46:48.132Z,99655.97
2022-08-04T17:49:24.348Z,99653.50
2022-08-04T17:52:02.626Z,99658.81
2022-08-04T17:54:44.321Z,99657.78
2022-08-04T17:57:21.556Z,99654.66
2022-08-04T18:00:01.307Z,99650.59
2022-08-04T18:02:54.505Z,99651.81
2022-08-04T18:06:01.812Z,99648.75
2022-08-04T18:08:39.661Z,99665.84
2022-08-04T18:11:29.663Z,99660.84
2022-08-04T18:14:25.995Z,99661.22
2022-08-04T18:17:04.237Z,99662.34
2022-08-04T18:19:55.585Z,99663.47
2022-08-04T18:22:34.233Z,99667.16
2022-08-04T18:25:18.530Z,99659.28
2022-08-04T18:27:58.586Z,99664.69
2022-08-04T18:30:55.621Z,99667.66
2022-08-04T18:33:39.865Z,99671.56
2022-08-04T18:36:32.978Z,99672.44
2022-08-04T18:39:16.216Z,99675.94
2022-08-04T18:42:02.466Z,99674.66
2022-08-04T18:44:53.229Z,99686.34
2022-08-04T18:47:58.669Z,99685.06
2022-08-04T18:51:09.512Z,99683.06
2022-08-04T18:53:35.736Z,99690.28
2022-08-04T18:56:19.912Z,99694.69
2022-08-04T18:59:10.166Z,99693.25
2022-08-04T19:02:12.279Z,99702.63
2022-08-04T19:04:53.539Z,99698.84
2022-08-04T19:08:02.634Z,99699.53
2022-08-04T19:10:34.865Z,99699.72
2022-08-04T19:13:24.837Z,99697.00
2022-08-04T19:15:59.117Z,99700.78
2022-08-04T19:18:48.576Z,99708.28
2022-08-04T19:21:58.654Z,99713.38
2022-08-04T19:24:32.094Z,99715.97
2022-08-04T19:27:07.417Z,99704.16
2022-08-04T19:29:50.384Z,99707.22
2022-08-04T19:32:26.498Z,99705.72
2022-08-04T19:35:02.554Z,99708.84
2022-08-04T19:37:58.203Z,99714.31
2022-08-04T19:40:36.997Z,99712.63
2022-08-04T19:43:16.002Z,99707.44
2022-08-04T19:45:56.717Z,99714.66
2022-08-04T19:48:35.974Z,99717.84
2022-08-04T19:51:15.352Z,99718.75
2022-08-04T19:54:08.073Z,99720.38
2022-08-04T19:57:03.970Z,99721.66
2022-08-04T19:59:36.618Z,99719.66
2022-08-04T20:02:20.121Z,99712.00
2022-08-04T20:05:04.735Z,99717.41
2022-08-04T20:07:52.405Z,99717.97
2022-08-04T20:10:23.718Z,99720.13
2022-08-04T20:13:10.623Z,99718.44
2022-08-04T20:15:57.415Z,99730.59
2022-08-04T20:18:55.596Z,99723.44
2022-08-04T20:21:54.067Z,99728.75
2022-08-04T20:28:00.501Z,99719.78
2022-08-04T20:30:34.465Z,99724.66
2022-08-04T20:33:23.446Z,99729.84
2022-08-04T20:36:11.654Z,99726.06
2022-08-04T20:38:52.002Z,99733.53
2022-08-04T20:41:36.706Z,99731.56
2022-08-04T20:44:18.730Z,99733.81
2022-08-04T20:46:55.429Z,99730.09
2022-08-04T20:49:36.486Z,99726.63
2022-08-04T20:52:20.577Z,99732.00
2022-08-04T20:55:00.003Z,99738.38
2022-08-04T20:57:47.922Z,99740.69
2022-08-04T21:00:30.316Z,99738.53
2022-08-04T21:03:11.473Z,99743.41
2022-08-04T21:05:57.652Z,99743.97
2022-08-04T21:08:30.834Z,99742.94
2022-08-04T21:11:17.770Z,99744.91
2022-08-04T21:13:52.792Z,99743.59
2022-08-04T21:16:55.744Z,99745.00
2022-08-04T21:19:32.433Z,99744.69
2022-08-04T21:22:14.266Z,99744.69
2022-08-04T21:25:06.446Z,99742.25
2022-08-04T21:27:39.450Z,99742.63
2022-08-04T21:30:23.837Z,99752.91
2022-08-04T21:33:06.495Z,99751.56
2022-08-04T21:35:54.339Z,99752.16
2022-08-04T21:38:28.380Z,99750.88
2022-08-04T21:41:03.668Z,99766.09
2022-08-04T21:43:42.643Z,99757.16
2022-08-04T21:46:24.154Z,99762.97
2022-08-04T21:49:03.256Z,99767.41
2022-08-04T21:52:00.282Z,99766.66
2022-08-04T21:54:39.508Z,99764.13
2022-08-04T21:57:17.077Z,99767.94
2022-08-04T22:00:00.963Z,99757.88
2022-08-04T22:02:43.242Z,99760.19
2022-08-04T22:05:32.674Z,99757.31
2022-08-04T22:08:19.547Z,99763.94
2022-08-04T22:11:01.130Z,99759.38
2022-08-04T22:13:52.406Z,99760.19
2022-08-04T22:16:30.020Z,99754.50
2022-08-04T22:19:13.655Z,99762.91
2022-08-04T22:21:56.616Z,99770.94
2022-08-04T22:24:39.539Z,99769.53
2022-08-04T22:27:36.157Z,99768.81
2022-08-04T22:30:18.495Z,99773.22
2022-08-04T22:32:56.530Z,99778.31
2022-08-04T22:35:43.755Z,99778.56
2022-08-04T22:38:27.893Z,99780.81
2022-08-04T22:41:17.275Z,99780.97
2022-08-04T22:44:00.993Z,99786.78
2022-08-04T22:46:45.463Z,99784.66
2022-08-04T22:49:31.932Z,99789.88
2022-08-04T22:52:26.208Z,99782.56
2022-08-04T22:55:11.456Z,99782.00
2022-08-04T22:58:04.992Z,99782.88
2022-08-04T23:00:53.055Z,99790.53
2022-08-04T23:03:37.269Z,99791.13
2022-08-04T23:06:24.430Z,99782.03
2022-08-04T23:09:06.404Z,99788.47
2022-08-04T23:12:08.602Z,99782.97
2022-08-04T23:14:56.893Z,99782.44
2022-08-04T23:17:43.841Z,99786.03
2022-08-04T23:20:32.930Z,99785.78
2022-08-04T23:23:14.857Z,99780.97
2022-08-04T23:26:11.044Z,99781.50
2022-08-04T23:28:56.872Z,99783.75
2022-08-04T23:31:41.009Z,99779.91
2022-08-04T23:34:29.134Z,99779.31
2022-08-04T23:37:08.655Z,99777.72
2022-08-04T23:40:15.438Z,99781.06
2022-08-04T23:42:45.214Z,99782.75
2022-08-04T23:45:24.532Z,99777.59
2022-08-04T23:48:20.887Z,99781.75
2022-08-04T23:51:04.559Z,99774.69
2022-08-04T23:54:03.674Z,99775.50
2022-08-04T23:56:40.429Z,99776.38
2022-08-04T23:59:49.159Z,99779.97
